sensor_id;sensor_type;location;lat;lon;timestamp;temperature;humidity
26990;DHT22;14537;47.788;11.858;2023-08-24T00:01:15;19.40;99.90
26990;DHT22;14537;47.788;11.858;2023-08-24T00:03:45;19.40;99.90
26990;DHT22;14537;47.788;11.858;2023-08-24T00:06:14;19.20;99.90
26990;DHT22;14537;47.788;11.858;2023-08-24T00:08:39;19.20;99.90
26990;DHT22;14537;47.788;11.858;2023-08-24T00:11:05;19.20;99.90
26990;DHT22;14537;47.788;11.858;2023-08-24T00:13:32;19.30;99.90
26990;DHT22;14537;47.788;11.858;2023-08-24T00:15:58;19.20;99.90
26990;DHT22;14537;47.788;11.858;2023-08-24T00:18:24;19.20;99.90
26990;DHT22;14537;47.788;11.858;2023-08-24T00:20:50;19.20;99.90
26990;DHT22;14537;47.788;11.858;2023-08-24T00:23:16;19.30;99.90
26990;DHT22;14537;47.788;11.858;2023-08-24T00:25:42;19.30;99.90
26990;DHT22;14537;47.788;11.858;2023-08-24T00:28:07;19.20;99.90
26990;DHT22;14537;47.788;11.858;2023-08-24T00:30:33;19.20;99.90
26990;DHT22;14537;47.788;11.858;2023-08-24T00:32:59;19.30;99.90
26990;DHT22;14537;47.788;11.858;2023-08-24T00:35:25;19.10;99.90
26990;DHT22;14537;47.788;11.858;2023-08-24T00:37:51;19.10;99.90
26990;DHT22;14537;47.788;11.858;2023-08-24T00:40:17;19.10;99.90
26990;DHT22;14537;47.788;11.858;2023-08-24T00:42:44;19.00;99.90
26990;DHT22;14537;47.788;11.858;2023-08-24T00:45:12;18.90;99.90
26990;DHT22;14537;47.788;11.858;2023-08-24T00:47:40;18.90;99.90
26990;DHT22;14537;47.788;11.858;2023-08-24T00:50:09;18.90;99.90
26990;DHT22;14537;47.788;11.858;2023-08-24T00:52:41;19.00;99.90
26990;DHT22;14537;47.788;11.858;2023-08-24T00:55:07;18.80;99.90
26990;DHT22;14537;47.788;11.858;2023-08-24T00:57:34;18.70;99.90
26990;DHT22;14537;47.788;11.858;2023-08-24T01:00:03;18.60;99.90
26990;DHT22;14537;47.788;11.858;2023-08-24T01:02:31;18.60;99.90
26990;DHT22;14537;47.788;11.858;2023-08-24T01:04:58;18.70;99.90
26990;DHT22;14537;47.788;11.858;2023-08-24T01:07:23;18.80;99.90
26990;DHT22;14537;47.788;11.858;2023-08-24T01:09:50;18.80;99.90
26990;DHT22;14537;47.788;11.858;2023-08-24T01:17:43;18.80;99.90
26990;DHT22;14537;47.788;11.858;2023-08-24T01:20:10;18.60;99.90
26990;DHT22;14537;47.788;11.858;2023-08-24T01:25:15;18.60;99.90
26990;DHT22;14537;47.788;11.858;2023-08-24T01:27:41;18.40;99.90
26990;DHT22;14537;47.788;11.858;2023-08-24T01:30:08;18.30;99.90
26990;DHT22;14537;47.788;11.858;2023-08-24T01:32:35;18.40;99.90
26990;DHT22;14537;47.788;11.858;2023-08-24T01:35:03;18.40;99.90
26990;DHT22;14537;47.788;11.858;2023-08-24T01:37:29;18.40;99.90
26990;DHT22;14537;47.788;11.858;2023-08-24T01:43:03;18.40;99.90
26990;DHT22;14537;47.788;11.858;2023-08-24T01:45:30;18.40;99.90
26990;DHT22;14537;47.788;11.858;2023-08-24T01:47:57;18.40;99.90
26990;DHT22;14537;47.788;11.858;2023-08-24T01:50:24;18.40;99.90
26990;DHT22;14537;47.788;11.858;2023-08-24T01:52:50;18.40;99.90
26990;DHT22;14537;47.788;11.858;2023-08-24T01:55:19;18.40;99.90
26990;DHT22;14537;47.788;11.858;2023-08-24T01:57:45;18.40;99.90
26990;DHT22;14537;47.788;11.858;2023-08-24T02:00:11;18.40;99.90
26990;DHT22;14537;47.788;11.858;2023-08-24T02:02:37;18.30;99.90
26990;DHT22;14537;47.788;11.858;2023-08-24T02:05:03;18.20;99.90
26990;DHT22;14537;47.788;11.858;2023-08-24T02:07:29;18.20;99.90
26990;DHT22;14537;47.788;11.858;2023-08-24T02:09:55;18.10;99.90
26990;DHT22;14537;47.788;11.858;2023-08-24T02:12:20;18.10;99.90
26990;DHT22;14537;47.788;11.858;2023-08-24T02:14:46;18.20;99.90
26990;DHT22;14537;47.788;11.858;2023-08-24T02:17:12;18.20;99.90
26990;DHT22;14537;47.788;11.858;2023-08-24T02:19:37;18.20;99.90
26990;DHT22;14537;47.788;11.858;2023-08-24T02:22:03;18.20;99.90
26990;DHT22;14537;47.788;11.858;2023-08-24T02:24:29;18.10;99.90
26990;DHT22;14537;47.788;11.858;2023-08-24T02:26:54;18.10;99.90
26990;DHT22;14537;47.788;11.858;2023-08-24T02:29:20;18.00;99.90
26990;DHT22;14537;47.788;11.858;2023-08-24T02:31:45;18.00;99.90
26990;DHT22;14537;47.788;11.858;2023-08-24T02:34:11;18.00;99.90
26990;DHT22;14537;47.788;11.858;2023-08-24T02:36:37;18.00;99.90
26990;DHT22;14537;47.788;11.858;2023-08-24T02:39:02;18.00;99.90
26990;DHT22;14537;47.788;11.858;2023-08-24T02:41:28;18.00;99.90
26990;DHT22;14537;47.788;11.858;2023-08-24T02:43:54;18.00;99.90
26990;DHT22;14537;47.788;11.858;2023-08-24T02:46:20;17.90;99.90
26990;DHT22;14537;47.788;11.858;2023-08-24T02:48:46;17.90;99.90
26990;DHT22;14537;47.788;11.858;2023-08-24T02:51:12;18.00;99.90
26990;DHT22;14537;47.788;11.858;2023-08-24T02:53:38;18.00;99.90
26990;DHT22;14537;47.788;11.858;2023-08-24T02:56:04;17.90;99.90
26990;DHT22;14537;47.788;11.858;2023-08-24T02:58:31;17.90;99.90
26990;DHT22;14537;47.788;11.858;2023-08-24T03:00:57;17.80;99.90
26990;DHT22;14537;47.788;11.858;2023-08-24T03:03:23;17.90;99.90
26990;DHT22;14537;47.788;11.858;2023-08-24T03:06:01;17.90;99.90
26990;DHT22;14537;47.788;11.858;2023-08-24T03:08:27;17.90;99.90
26990;DHT22;14537;47.788;11.858;2023-08-24T03:10:53;17.90;99.90
26990;DHT22;14537;47.788;11.858;2023-08-24T03:13:19;17.80;99.90
26990;DHT22;14537;47.788;11.858;2023-08-24T03:15:45;17.70;99.90
26990;DHT22;14537;47.788;11.858;2023-08-24T03:18:15;17.60;99.90
26990;DHT22;14537;47.788;11.858;2023-08-24T03:20:40;17.60;99.90
26990;DHT22;14537;47.788;11.858;2023-08-24T03:23:07;17.60;99.90
26990;DHT22;14537;47.788;11.858;2023-08-24T03:25:36;17.40;99.90
26990;DHT22;14537;47.788;11.858;2023-08-24T03:28:02;17.50;99.90
26990;DHT22;14537;47.788;11.858;2023-08-24T03:30:28;17.50;99.90
26990;DHT22;14537;47.788;11.858;2023-08-24T03:32:53;17.40;99.90
26990;DHT22;14537;47.788;11.858;2023-08-24T03:35:19;17.40;99.90
26990;DHT22;14537;47.788;11.858;2023-08-24T03:37:45;17.40;99.90
26990;DHT22;14537;47.788;11.858;2023-08-24T03:40:12;17.40;99.90
26990;DHT22;14537;47.788;11.858;2023-08-24T03:42:38;17.50;99.90
26990;DHT22;14537;47.788;11.858;2023-08-24T03:45:04;17.60;99.90
26990;DHT22;14537;47.788;11.858;2023-08-24T03:47:30;17.60;99.90
26990;DHT22;14537;47.788;11.858;2023-08-24T03:49:55;17.60;99.90
26990;DHT22;14537;47.788;11.858;2023-08-24T03:52:22;17.50;99.90
26990;DHT22;14537;47.788;11.858;2023-08-24T03:54:47;17.50;99.90
26990;DHT22;14537;47.788;11.858;2023-08-24T03:57:14;17.60;99.90
26990;DHT22;14537;47.788;11.858;2023-08-24T03:59:41;17.50;99.90
26990;DHT22;14537;47.788;11.858;2023-08-24T04:02:07;17.50;99.90
26990;DHT22;14537;47.788;11.858;2023-08-24T04:04:32;17.60;99.90
26990;DHT22;14537;47.788;11.858;2023-08-24T04:06:58;17.60;99.90
26990;DHT22;14537;47.788;11.858;2023-08-24T04:09:24;17.60;99.90
26990;DHT22;14537;47.788;11.858;2023-08-24T04:11:49;17.50;99.90
26990;DHT22;14537;47.788;11.858;2023-08-24T04:14:15;17.60;99.90
26990;DHT22;14537;47.788;11.858;2023-08-24T04:16:41;17.50;99.90
26990;DHT22;14537;47.788;11.858;2023-08-24T04:19:07;17.50;99.90
26990;DHT22;14537;47.788;11.858;2023-08-24T04:21:33;17.40;99.90
26990;DHT22;14537;47.788;11.858;2023-08-24T04:23:59;17.40;99.90
26990;DHT22;14537;47.788;11.858;2023-08-24T04:26:25;17.40;99.90
26990;DHT22;14537;47.788;11.858;2023-08-24T04:28:50;17.30;99.90
26990;DHT22;14537;47.788;11.858;2023-08-24T04:31:16;17.30;99.90
26990;DHT22;14537;47.788;11.858;2023-08-24T04:33:41;17.40;99.90
26990;DHT22;14537;47.788;11.858;2023-08-24T04:36:07;17.30;99.90
26990;DHT22;14537;47.788;11.858;2023-08-24T04:38:32;17.40;99.90
26990;DHT22;14537;47.788;11.858;2023-08-24T04:40:58;17.40;99.90
26990;DHT22;14537;47.788;11.858;2023-08-24T04:43:24;17.40;99.90
26990;DHT22;14537;47.788;11.858;2023-08-24T04:45:51;17.50;99.90
26990;DHT22;14537;47.788;11.858;2023-08-24T04:48:18;17.60;99.90
26990;DHT22;14537;47.788;11.858;2023-08-24T04:50:45;17.60;99.90
26990;DHT22;14537;47.788;11.858;2023-08-24T04:53:13;17.60;99.90
26990;DHT22;14537;47.788;11.858;2023-08-24T04:55:40;17.70;99.90
26990;DHT22;14537;47.788;11.858;2023-08-24T04:58:06;17.70;99.90
26990;DHT22;14537;47.788;11.858;2023-08-24T05:00:32;17.70;99.90
26990;DHT22;14537;47.788;11.858;2023-08-24T05:02:59;17.70;99.90
26990;DHT22;14537;47.788;11.858;2023-08-24T05:05:24;17.70;99.90
26990;DHT22;14537;47.788;11.858;2023-08-24T05:07:50;17.70;99.90
26990;DHT22;14537;47.788;11.858;2023-08-24T05:10:16;17.60;99.90
26990;DHT22;14537;47.788;11.858;2023-08-24T05:12:41;17.70;99.90
26990;DHT22;14537;47.788;11.858;2023-08-24T05:15:07;17.70;99.90
26990;DHT22;14537;47.788;11.858;2023-08-24T05:17:33;17.70;99.90
26990;DHT22;14537;47.788;11.858;2023-08-24T05:19:59;17.70;99.90
26990;DHT22;14537;47.788;11.858;2023-08-24T05:22:25;17.90;99.90
26990;DHT22;14537;47.788;11.858;2023-08-24T05:24:51;17.90;99.90
26990;DHT22;14537;47.788;11.858;2023-08-24T05:27:17;17.90;99.90
26990;DHT22;14537;47.788;11.858;2023-08-24T05:29:43;18.00;99.90
26990;DHT22;14537;47.788;11.858;2023-08-24T05:32:09;18.10;99.90
26990;DHT22;14537;47.788;11.858;2023-08-24T05:34:34;18.20;99.90
26990;DHT22;14537;47.788;11.858;2023-08-24T05:37:00;18.20;99.90
26990;DHT22;14537;47.788;11.858;2023-08-24T05:39:25;18.30;99.90
26990;DHT22;14537;47.788;11.858;2023-08-24T05:41:52;18.30;99.90
26990;DHT22;14537;47.788;11.858;2023-08-24T05:44:21;18.40;99.90
26990;DHT22;14537;47.788;11.858;2023-08-24T05:46:47;18.40;99.90
26990;DHT22;14537;47.788;11.858;2023-08-24T05:49:13;18.50;99.90
26990;DHT22;14537;47.788;11.858;2023-08-24T05:51:38;18.60;99.90
26990;DHT22;14537;47.788;11.858;2023-08-24T05:54:04;18.60;99.90
26990;DHT22;14537;47.788;11.858;2023-08-24T05:56:30;18.70;99.90
26990;DHT22;14537;47.788;11.858;2023-08-24T05:58:57;18.80;99.90
26990;DHT22;14537;47.788;11.858;2023-08-24T06:01:23;18.80;99.90
26990;DHT22;14537;47.788;11.858;2023-08-24T06:03:49;18.90;99.90
26990;DHT22;14537;47.788;11.858;2023-08-24T06:06:15;18.90;99.90
26990;DHT22;14537;47.788;11.858;2023-08-24T06:08:41;19.00;99.90
26990;DHT22;14537;47.788;11.858;2023-08-24T06:11:07;19.10;99.90
26990;DHT22;14537;47.788;11.858;2023-08-24T06:13:33;19.20;99.90
26990;DHT22;14537;47.788;11.858;2023-08-24T06:15:58;19.20;99.90
26990;DHT22;14537;47.788;11.858;2023-08-24T06:18:24;19.30;99.90
26990;DHT22;14537;47.788;11.858;2023-08-24T06:20:50;19.30;99.90
26990;DHT22;14537;47.788;11.858;2023-08-24T06:23:19;19.50;99.90
26990;DHT22;14537;47.788;11.858;2023-08-24T06:25:44;19.50;99.90
26990;DHT22;14537;47.788;11.858;2023-08-24T06:28:11;19.60;99.90
26990;DHT22;14537;47.788;11.858;2023-08-24T06:30:38;19.70;99.90
26990;DHT22;14537;47.788;11.858;2023-08-24T06:33:04;19.80;99.90
26990;DHT22;14537;47.788;11.858;2023-08-24T06:35:30;19.80;99.90
26990;DHT22;14537;47.788;11.858;2023-08-24T06:37:56;19.80;99.90
26990;DHT22;14537;47.788;11.858;2023-08-24T06:40:22;20.00;99.90
26990;DHT22;14537;47.788;11.858;2023-08-24T06:42:48;20.00;99.90
26990;DHT22;14537;47.788;11.858;2023-08-24T06:45:13;20.10;99.90
26990;DHT22;14537;47.788;11.858;2023-08-24T06:47:39;20.20;99.90
26990;DHT22;14537;47.788;11.858;2023-08-24T06:50:06;20.30;99.90
26990;DHT22;14537;47.788;11.858;2023-08-24T06:52:32;20.30;99.90
26990;DHT22;14537;47.788;11.858;2023-08-24T06:54:58;20.40;99.90
26990;DHT22;14537;47.788;11.858;2023-08-24T06:57:24;20.50;99.90
26990;DHT22;14537;47.788;11.858;2023-08-24T06:59:50;20.60;99.90
26990;DHT22;14537;47.788;11.858;2023-08-24T07:02:16;20.70;99.90
26990;DHT22;14537;47.788;11.858;2023-08-24T07:04:43;20.70;99.90
26990;DHT22;14537;47.788;11.858;2023-08-24T07:07:10;20.80;99.90
26990;DHT22;14537;47.788;11.858;2023-08-24T07:09:35;20.90;99.90
26990;DHT22;14537;47.788;11.858;2023-08-24T07:12:04;20.90;99.90
26990;DHT22;14537;47.788;11.858;2023-08-24T07:14:32;21.00;99.90
26990;DHT22;14537;47.788;11.858;2023-08-24T07:16:58;21.10;99.90
26990;DHT22;14537;47.788;11.858;2023-08-24T07:19:24;21.10;99.90
26990;DHT22;14537;47.788;11.858;2023-08-24T07:21:50;21.20;99.90
26990;DHT22;14537;47.788;11.858;2023-08-24T07:24:16;21.30;99.90
26990;DHT22;14537;47.788;11.858;2023-08-24T07:26:44;21.40;99.90
26990;DHT22;14537;47.788;11.858;2023-08-24T07:29:11;21.40;99.90
26990;DHT22;14537;47.788;11.858;2023-08-24T07:31:36;21.50;99.90
26990;DHT22;14537;47.788;11.858;2023-08-24T07:34:02;21.50;99.90
26990;DHT22;14537;47.788;11.858;2023-08-24T07:36:31;21.60;99.90
26990;DHT22;14537;47.788;11.858;2023-08-24T07:38:58;21.70;99.90
26990;DHT22;14537;47.788;11.858;2023-08-24T07:41:23;21.70;99.90
26990;DHT22;14537;47.788;11.858;2023-08-24T07:43:49;21.80;99.90
26990;DHT22;14537;47.788;11.858;2023-08-24T07:46:14;21.90;99.90
26990;DHT22;14537;47.788;11.858;2023-08-24T07:48:40;21.90;99.90
26990;DHT22;14537;47.788;11.858;2023-08-24T07:51:06;22.00;99.90
26990;DHT22;14537;47.788;11.858;2023-08-24T07:53:32;22.00;99.90
26990;DHT22;14537;47.788;11.858;2023-08-24T07:55:58;22.10;99.90
26990;DHT22;14537;47.788;11.858;2023-08-24T07:58:24;22.10;99.90
26990;DHT22;14537;47.788;11.858;2023-08-24T08:00:50;22.20;99.90
26990;DHT22;14537;47.788;11.858;2023-08-24T08:03:20;22.30;99.90
26990;DHT22;14537;47.788;11.858;2023-08-24T08:05:46;22.40;99.90
26990;DHT22;14537;47.788;11.858;2023-08-24T08:08:14;22.50;99.90
26990;DHT22;14537;47.788;11.858;2023-08-24T08:10:40;22.60;99.90
26990;DHT22;14537;47.788;11.858;2023-08-24T08:13:06;22.70;99.90
26990;DHT22;14537;47.788;11.858;2023-08-24T08:15:32;22.80;99.90
26990;DHT22;14537;47.788;11.858;2023-08-24T08:17:58;22.80;99.90
26990;DHT22;14537;47.788;11.858;2023-08-24T08:20:23;22.90;99.90
26990;DHT22;14537;47.788;11.858;2023-08-24T08:22:49;23.00;99.90
26990;DHT22;14537;47.788;11.858;2023-08-24T08:25:15;23.10;99.90
26990;DHT22;14537;47.788;11.858;2023-08-24T08:27:43;23.20;99.90
26990;DHT22;14537;47.788;11.858;2023-08-24T08:30:09;23.20;99.90
26990;DHT22;14537;47.788;11.858;2023-08-24T08:32:35;23.30;99.90
26990;DHT22;14537;47.788;11.858;2023-08-24T08:35:01;23.40;99.90
26990;DHT22;14537;47.788;11.858;2023-08-24T08:37:27;23.50;99.90
26990;DHT22;14537;47.788;11.858;2023-08-24T08:39:53;23.60;99.90
26990;DHT22;14537;47.788;11.858;2023-08-24T08:42:18;23.70;99.90
26990;DHT22;14537;47.788;11.858;2023-08-24T08:44:46;23.80;99.90
26990;DHT22;14537;47.788;11.858;2023-08-24T08:47:12;23.80;99.90
26990;DHT22;14537;47.788;11.858;2023-08-24T08:49:39;23.90;99.90
26990;DHT22;14537;47.788;11.858;2023-08-24T08:52:05;24.00;99.90
26990;DHT22;14537;47.788;11.858;2023-08-24T08:54:32;24.00;99.90
26990;DHT22;14537;47.788;11.858;2023-08-24T08:57:01;24.10;99.90
26990;DHT22;14537;47.788;11.858;2023-08-24T08:59:30;24.10;99.90
26990;DHT22;14537;47.788;11.858;2023-08-24T09:02:01;24.20;99.90
26990;DHT22;14537;47.788;11.858;2023-08-24T09:04:29;24.20;99.90
26990;DHT22;14537;47.788;11.858;2023-08-24T09:06:55;24.30;99.90
26990;DHT22;14537;47.788;11.858;2023-08-24T09:09:27;24.30;99.90
26990;DHT22;14537;47.788;11.858;2023-08-24T09:11:53;24.30;99.90
26990;DHT22;14537;47.788;11.858;2023-08-24T09:14:18;24.40;99.90
26990;DHT22;14537;47.788;11.858;2023-08-24T09:16:44;24.40;99.90
26990;DHT22;14537;47.788;11.858;2023-08-24T09:19:13;24.40;99.90
26990;DHT22;14537;47.788;11.858;2023-08-24T09:21:39;24.50;99.90
26990;DHT22;14537;47.788;11.858;2023-08-24T09:24:07;24.50;99.90
26990;DHT22;14537;47.788;11.858;2023-08-24T09:26:34;24.50;99.90
26990;DHT22;14537;47.788;11.858;2023-08-24T09:29:10;24.60;99.90
26990;DHT22;14537;47.788;11.858;2023-08-24T09:31:38;24.70;99.90
26990;DHT22;14537;47.788;11.858;2023-08-24T09:34:04;24.80;99.90
26990;DHT22;14537;47.788;11.858;2023-08-24T09:36:34;24.90;99.90
26990;DHT22;14537;47.788;11.858;2023-08-24T09:39:01;24.80;99.90
26990;DHT22;14537;47.788;11.858;2023-08-24T09:44:05;24.90;99.90
26990;DHT22;14537;47.788;11.858;2023-08-24T09:46:31;24.90;99.90
26990;DHT22;14537;47.788;11.858;2023-08-24T09:48:57;25.00;99.90
26990;DHT22;14537;47.788;11.858;2023-08-24T09:51:26;25.00;99.90
26990;DHT22;14537;47.788;11.858;2023-08-24T09:53:54;25.20;99.90
26990;DHT22;14537;47.788;11.858;2023-08-24T09:56:21;25.20;99.90
26990;DHT22;14537;47.788;11.858;2023-08-24T09:58:49;25.30;99.90
26990;DHT22;14537;47.788;11.858;2023-08-24T10:01:17;25.40;99.90
26990;DHT22;14537;47.788;11.858;2023-08-24T10:03:44;25.30;99.90
26990;DHT22;14537;47.788;11.858;2023-08-24T10:06:10;25.40;99.90
26990;DHT22;14537;47.788;11.858;2023-08-24T10:08:43;25.30;99.90
26990;DHT22;14537;47.788;11.858;2023-08-24T10:11:15;25.40;99.90
26990;DHT22;14537;47.788;11.858;2023-08-24T10:16:23;25.60;99.90
26990;DHT22;14537;47.788;11.858;2023-08-24T10:18:49;25.60;99.90
26990;DHT22;14537;47.788;11.858;2023-08-24T10:21:17;25.70;99.90
26990;DHT22;14537;47.788;11.858;2023-08-24T10:23:43;25.70;99.90
26990;DHT22;14537;47.788;11.858;2023-08-24T10:26:12;25.80;99.90
26990;DHT22;14537;47.788;11.858;2023-08-24T10:28:39;25.90;99.90
26990;DHT22;14537;47.788;11.858;2023-08-24T10:31:05;25.90;99.90
26990;DHT22;14537;47.788;11.858;2023-08-24T10:33:32;26.00;99.90
26990;DHT22;14537;47.788;11.858;2023-08-24T10:35:59;26.00;99.90
26990;DHT22;14537;47.788;11.858;2023-08-24T10:38:29;26.10;99.90
26990;DHT22;14537;47.788;11.858;2023-08-24T10:41:04;26.10;99.90
26990;DHT22;14537;47.788;11.858;2023-08-24T10:43:37;26.20;99.90
26990;DHT22;14537;47.788;11.858;2023-08-24T10:46:03;26.20;99.90
26990;DHT22;14537;47.788;11.858;2023-08-24T10:51:16;26.40;99.90
26990;DHT22;14537;47.788;11.858;2023-08-24T10:54:06;26.50;99.90
26990;DHT22;14537;47.788;11.858;2023-08-24T11:01:40;26.80;99.90
26990;DHT22;14537;47.788;11.858;2023-08-24T11:04:06;26.90;99.90
26990;DHT22;14537;47.788;11.858;2023-08-24T11:06:34;27.00;99.90
26990;DHT22;14537;47.788;11.858;2023-08-24T11:09:07;27.00;99.90
26990;DHT22;14537;47.788;11.858;2023-08-24T11:11:39;27.10;99.90
26990;DHT22;14537;47.788;11.858;2023-08-24T11:14:19;27.10;99.90
26990;DHT22;14537;47.788;11.858;2023-08-24T11:16:48;27.00;99.90
26990;DHT22;14537;47.788;11.858;2023-08-24T11:19:14;27.10;99.90
26990;DHT22;14537;47.788;11.858;2023-08-24T11:21:44;27.20;99.90
26990;DHT22;14537;47.788;11.858;2023-08-24T11:24:12;27.20;99.90
26990;DHT22;14537;47.788;11.858;2023-08-24T11:26:57;27.30;99.90
26990;DHT22;14537;47.788;11.858;2023-08-24T11:29:25;27.30;99.90
26990;DHT22;14537;47.788;11.858;2023-08-24T11:31:51;27.40;99.90
26990;DHT22;14537;47.788;11.858;2023-08-24T11:34:17;27.40;99.90
26990;DHT22;14537;47.788;11.858;2023-08-24T11:36:46;27.50;99.90
26990;DHT22;14537;47.788;11.858;2023-08-24T11:39:18;27.50;99.90
26990;DHT22;14537;47.788;11.858;2023-08-24T11:44:27;27.40;99.90
26990;DHT22;14537;47.788;11.858;2023-08-24T11:46:52;27.60;99.90
26990;DHT22;14537;47.788;11.858;2023-08-24T11:49:18;27.80;99.90
26990;DHT22;14537;47.788;11.858;2023-08-24T11:51:44;27.90;99.90
26990;DHT22;14537;47.788;11.858;2023-08-24T11:54:10;28.10;99.90
26990;DHT22;14537;47.788;11.858;2023-08-24T11:56:42;28.20;99.90
26990;DHT22;14537;47.788;11.858;2023-08-24T11:59:14;28.10;99.90
26990;DHT22;14537;47.788;11.858;2023-08-24T12:01:41;28.30;99.90
26990;DHT22;14537;47.788;11.858;2023-08-24T12:04:07;28.40;99.90
26990;DHT22;14537;47.788;11.858;2023-08-24T12:06:32;28.60;99.90
26990;DHT22;14537;47.788;11.858;2023-08-24T12:08:58;28.70;99.90
26990;DHT22;14537;47.788;11.858;2023-08-24T12:11:24;28.70;99.90
26990;DHT22;14537;47.788;11.858;2023-08-24T12:13:52;28.80;99.90
26990;DHT22;14537;47.788;11.858;2023-08-24T12:16:19;28.90;99.90
26990;DHT22;14537;47.788;11.858;2023-08-24T12:18:53;29.10;99.90
26990;DHT22;14537;47.788;11.858;2023-08-24T12:21:19;29.10;99.90
26990;DHT22;14537;47.788;11.858;2023-08-24T12:24:01;29.20;99.90
26990;DHT22;14537;47.788;11.858;2023-08-24T12:26:29;29.30;99.90
26990;DHT22;14537;47.788;11.858;2023-08-24T12:29:12;29.40;99.90
26990;DHT22;14537;47.788;11.858;2023-08-24T12:31:42;29.60;99.90
26990;DHT22;14537;47.788;11.858;2023-08-24T12:34:09;29.70;99.90
26990;DHT22;14537;47.788;11.858;2023-08-24T12:36:37;29.60;99.90
26990;DHT22;14537;47.788;11.858;2023-08-24T12:39:05;29.60;99.90
26990;DHT22;14537;47.788;11.858;2023-08-24T12:41:32;29.70;99.90
26990;DHT22;14537;47.788;11.858;2023-08-24T12:43:58;29.90;99.90
26990;DHT22;14537;47.788;11.858;2023-08-24T12:46:24;30.10;99.90
26990;DHT22;14537;47.788;11.858;2023-08-24T12:48:50;30.20;99.90
26990;DHT22;14537;47.788;11.858;2023-08-24T12:51:16;30.30;99.90
26990;DHT22;14537;47.788;11.858;2023-08-24T12:53:43;30.40;99.90
26990;DHT22;14537;47.788;11.858;2023-08-24T12:56:08;30.50;99.90
26990;DHT22;14537;47.788;11.858;2023-08-24T12:58:34;30.50;99.90
26990;DHT22;14537;47.788;11.858;2023-08-24T13:01:00;30.60;99.90
26990;DHT22;14537;47.788;11.858;2023-08-24T13:03:26;30.60;99.90
26990;DHT22;14537;47.788;11.858;2023-08-24T13:05:51;30.40;99.90
26990;DHT22;14537;47.788;11.858;2023-08-24T13:08:17;30.40;99.90
26990;DHT22;14537;47.788;11.858;2023-08-24T13:10:42;30.40;99.90
26990;DHT22;14537;47.788;11.858;2023-08-24T13:13:08;30.40;99.90
26990;DHT22;14537;47.788;11.858;2023-08-24T13:15:34;30.60;99.90
26990;DHT22;14537;47.788;11.858;2023-08-24T13:17:59;30.70;99.90
26990;DHT22;14537;47.788;11.858;2023-08-24T13:20:25;30.70;99.90
26990;DHT22;14537;47.788;11.858;2023-08-24T13:22:52;30.70;99.90
26990;DHT22;14537;47.788;11.858;2023-08-24T13:25:18;30.80;99.90
26990;DHT22;14537;47.788;11.858;2023-08-24T13:27:44;30.80;99.90
26990;DHT22;14537;47.788;11.858;2023-08-24T13:30:09;30.90;99.90
26990;DHT22;14537;47.788;11.858;2023-08-24T13:32:35;31.00;99.90
26990;DHT22;14537;47.788;11.858;2023-08-24T13:35:02;31.10;99.90
26990;DHT22;14537;47.788;11.858;2023-08-24T13:37:28;31.10;99.90
26990;DHT22;14537;47.788;11.858;2023-08-24T13:39:54;31.20;99.90
26990;DHT22;14537;47.788;11.858;2023-08-24T13:42:19;31.40;99.90
26990;DHT22;14537;47.788;11.858;2023-08-24T13:44:45;31.50;99.90
26990;DHT22;14537;47.788;11.858;2023-08-24T13:47:11;31.40;99.90
26990;DHT22;14537;47.788;11.858;2023-08-24T13:49:37;31.50;99.90
26990;DHT22;14537;47.788;11.858;2023-08-24T13:52:03;31.60;99.90
26990;DHT22;14537;47.788;11.858;2023-08-24T13:54:29;31.70;99.90
26990;DHT22;14537;47.788;11.858;2023-08-24T13:56:55;31.70;99.90
26990;DHT22;14537;47.788;11.858;2023-08-24T13:59:22;31.90;99.90
26990;DHT22;14537;47.788;11.858;2023-08-24T14:01:47;31.90;99.90
26990;DHT22;14537;47.788;11.858;2023-08-24T14:04:13;32.00;99.90
26990;DHT22;14537;47.788;11.858;2023-08-24T14:06:39;32.20;99.90
26990;DHT22;14537;47.788;11.858;2023-08-24T14:09:05;32.10;99.90
26990;DHT22;14537;47.788;11.858;2023-08-24T14:11:31;31.90;99.90
26990;DHT22;14537;47.788;11.858;2023-08-24T14:13:57;32.00;99.90
26990;DHT22;14537;47.788;11.858;2023-08-24T14:16:23;32.00;99.90
26990;DHT22;14537;47.788;11.858;2023-08-24T14:18:49;32.10;99.90
26990;DHT22;14537;47.788;11.858;2023-08-24T14:21:17;32.20;99.90
26990;DHT22;14537;47.788;11.858;2023-08-24T14:23:43;32.20;99.90
26990;DHT22;14537;47.788;11.858;2023-08-24T14:26:09;32.30;99.90
26990;DHT22;14537;47.788;11.858;2023-08-24T14:28:55;32.40;99.90
26990;DHT22;14537;47.788;11.858;2023-08-24T14:31:23;32.60;99.90
26990;DHT22;14537;47.788;11.858;2023-08-24T14:33:49;32.80;99.90
26990;DHT22;14537;47.788;11.858;2023-08-24T14:36:15;32.80;99.90
26990;DHT22;14537;47.788;11.858;2023-08-24T14:38:41;32.80;99.90
26990;DHT22;14537;47.788;11.858;2023-08-24T14:41:09;33.00;99.90
26990;DHT22;14537;47.788;11.858;2023-08-24T14:43:34;33.30;99.90
26990;DHT22;14537;47.788;11.858;2023-08-24T14:46:00;33.50;99.90
26990;DHT22;14537;47.788;11.858;2023-08-24T14:48:26;33.50;99.90
26990;DHT22;14537;47.788;11.858;2023-08-24T14:50:52;33.50;99.90
26990;DHT22;14537;47.788;11.858;2023-08-24T14:53:17;33.60;99.90
26990;DHT22;14537;47.788;11.858;2023-08-24T14:55:43;33.70;99.90
26990;DHT22;14537;47.788;11.858;2023-08-24T14:58:09;33.70;99.90
26990;DHT22;14537;47.788;11.858;2023-08-24T15:00:34;33.50;99.90
26990;DHT22;14537;47.788;11.858;2023-08-24T15:03:00;33.40;99.90
26990;DHT22;14537;47.788;11.858;2023-08-24T15:05:26;33.30;99.90
26990;DHT22;14537;47.788;11.858;2023-08-24T15:07:51;33.30;99.90
26990;DHT22;14537;47.788;11.858;2023-08-24T15:10:18;33.20;99.90
26990;DHT22;14537;47.788;11.858;2023-08-24T15:12:45;33.20;99.90
26990;DHT22;14537;47.788;11.858;2023-08-24T15:15:12;33.40;99.90
26990;DHT22;14537;47.788;11.858;2023-08-24T15:17:39;33.70;99.90
26990;DHT22;14537;47.788;11.858;2023-08-24T15:20:05;33.90;99.90
26990;DHT22;14537;47.788;11.858;2023-08-24T15:22:31;34.40;99.90
26990;DHT22;14537;47.788;11.858;2023-08-24T15:25:00;34.80;99.90
26990;DHT22;14537;47.788;11.858;2023-08-24T15:27:25;35.60;99.90
26990;DHT22;14537;47.788;11.858;2023-08-24T15:29:51;36.10;99.90
26990;DHT22;14537;47.788;11.858;2023-08-24T15:32:17;36.80;99.30
26990;DHT22;14537;47.788;11.858;2023-08-24T15:34:43;37.30;97.50
26990;DHT22;14537;47.788;11.858;2023-08-24T15:37:09;38.10;97.90
26990;DHT22;14537;47.788;11.858;2023-08-24T15:39:39;39.10;96.70